createdAt,value
2023-04-26T00:00:10.051Z,14.65
2023-04-26T00:02:38.621Z,14.45
2023-04-26T00:05:09.389Z,14.46
2023-04-26T00:07:39.371Z,14.69
2023-04-26T00:10:08.589Z,14.83
2023-04-26T00:12:37.492Z,14.56
2023-04-26T00:15:06.569Z,14.80
2023-04-26T00:17:35.039Z,14.85
2023-04-26T00:20:04.696Z,13.67
2023-04-26T00:22:33.039Z,14.61
2023-04-26T00:25:02.657Z,14.95
2023-04-26T00:27:30.939Z,14.34
2023-04-26T00:29:59.218Z,14.32
2023-04-26T00:32:27.534Z,14.55
2023-04-26T00:34:55.907Z,14.69
2023-04-26T00:37:24.896Z,14.08
2023-04-26T00:39:53.202Z,14.60
2023-04-26T00:42:22.857Z,15.09
2023-04-26T00:44:55.206Z,14.62
2023-04-26T00:47:23.473Z,14.45
2023-04-26T00:49:51.848Z,14.53
2023-04-26T00:52:20.160Z,13.85
2023-04-26T00:54:49.606Z,14.63
2023-04-26T00:57:18.037Z,14.38
2023-04-26T00:59:47.658Z,14.75
2023-04-26T01:02:16.147Z,14.09
2023-04-26T01:04:45.730Z,14.14
2023-04-26T01:07:14.047Z,14.14
2023-04-26T01:09:43.124Z,14.03
2023-04-26T01:12:12.387Z,14.30
2023-04-26T01:14:41.114Z,13.66
2023-04-26T01:17:10.890Z,14.15
2023-04-26T01:19:48.192Z,14.41
2023-04-26T01:22:16.576Z,13.76
2023-04-26T01:24:48.710Z,13.84
2023-04-26T01:27:17.677Z,13.34
2023-04-26T01:29:46.279Z,14.30
2023-04-26T01:32:14.525Z,13.38
2023-04-26T01:34:42.794Z,14.20
2023-04-26T01:37:11.548Z,14.47
2023-04-26T01:39:39.864Z,14.19
2023-04-26T01:42:09.472Z,14.08
2023-04-26T01:44:37.743Z,13.79
2023-04-26T01:47:06.157Z,14.07
2023-04-26T01:49:34.557Z,14.20
2023-04-26T01:52:03.233Z,14.45
2023-04-26T01:54:31.604Z,14.00
2023-04-26T01:56:59.866Z,13.85
2023-04-26T01:59:29.524Z,13.65
2023-04-26T02:01:57.764Z,13.17
2023-04-26T02:04:26.653Z,13.42
2023-04-26T02:06:54.962Z,13.23
2023-04-26T02:09:23.183Z,12.84
2023-04-26T02:11:51.495Z,13.51
2023-04-26T02:14:20.337Z,12.72
2023-04-26T02:16:49.947Z,13.59
2023-04-26T02:19:18.183Z,12.71
2023-04-26T02:21:53.746Z,13.41
2023-04-26T02:24:23.201Z,12.90
2023-04-26T02:26:51.853Z,13.10
2023-04-26T02:29:26.883Z,12.41
2023-04-26T02:32:06.332Z,13.05
2023-04-26T02:34:34.718Z,13.07
2023-04-26T02:37:04.239Z,13.39
2023-04-26T02:39:32.709Z,13.37
2023-04-26T02:42:00.975Z,13.15
2023-04-26T02:44:30.945Z,13.57
2023-04-26T02:46:59.331Z,13.57
2023-04-26T02:49:29.232Z,13.78
2023-04-26T02:51:57.653Z,13.38
2023-04-26T02:54:25.883Z,13.37
2023-04-26T02:56:55.365Z,12.98
2023-04-26T02:59:23.618Z,13.46
2023-04-26T03:01:51.926Z,13.34
2023-04-26T03:04:20.772Z,13.62
2023-04-26T03:06:50.558Z,13.86
2023-04-26T03:09:18.942Z,13.15
2023-04-26T03:11:49.600Z,13.21
2023-04-26T03:14:18.444Z,13.35
2023-04-26T03:16:48.423Z,12.81
2023-04-26T03:19:16.796Z,13.07
2023-04-26T03:21:45.086Z,13.29
2023-04-26T03:24:14.705Z,12.99
2023-04-26T03:26:42.964Z,12.95
2023-04-26T03:29:12.511Z,12.77
2023-04-26T03:31:40.929Z,12.67
2023-04-26T03:34:09.350Z,12.93
2023-04-26T03:36:38.260Z,12.85
2023-04-26T03:39:06.850Z,12.87
2023-04-26T03:41:39.614Z,13.31
2023-04-26T03:44:08.148Z,13.33
2023-04-26T03:46:36.516Z,12.94
2023-04-26T03:49:04.821Z,12.95
2023-04-26T03:51:33.072Z,13.02
2023-04-26T03:54:01.337Z,12.84
2023-04-26T03:56:29.628Z,12.99
2023-04-26T03:58:59.260Z,13.47
2023-04-26T04:01:27.895Z,13.73
2023-04-26T04:03:56.602Z,13.26
2023-04-26T04:06:25.195Z,13.52
2023-04-26T04:08:53.813Z,13.63
2023-04-26T04:11:23.310Z,13.89
2023-04-26T04:13:51.594Z,14.04
2023-04-26T04:16:21.824Z,14.52
2023-04-26T04:18:50.557Z,13.87
2023-04-26T04:21:18.999Z,13.70
2023-04-26T04:23:47.814Z,13.21
2023-04-26T04:26:16.181Z,13.41
2023-04-26T04:28:45.573Z,12.77
2023-04-26T04:31:14.027Z,13.34
2023-04-26T04:33:43.662Z,13.69
2023-04-26T04:36:11.928Z,13.04
2023-04-26T04:38:40.206Z,13.77
2023-04-26T04:41:08.707Z,13.55
2023-04-26T04:43:37.215Z,12.91
2023-04-26T04:46:05.562Z,13.27
2023-04-26T04:48:34.259Z,12.84
2023-04-26T04:51:04.142Z,13.08
2023-04-26T04:53:32.407Z,12.76
2023-04-26T04:56:00.815Z,12.88
2023-04-26T04:58:29.109Z,12.48
2023-04-26T05:01:01.271Z,12.44
2023-04-26T05:03:30.068Z,12.93
2023-04-26T05:05:58.504Z,12.76
2023-04-26T05:08:28.126Z,12.65
2023-04-26T05:10:56.866Z,12.45
2023-04-26T05:13:25.219Z,12.27
2023-04-26T05:15:53.917Z,12.46
2023-04-26T05:18:22.223Z,12.86
2023-04-26T05:20:50.578Z,12.89
2023-04-26T05:23:18.819Z,12.96
2023-04-26T05:25:48.461Z,13.50
2023-04-26T05:28:16.727Z,12.97
2023-04-26T05:30:45.023Z,12.71
2023-04-26T05:33:13.781Z,12.79
2023-04-26T05:35:42.101Z,13.22
2023-04-26T05:38:10.413Z,13.42
2023-04-26T05:40:38.625Z,13.43
2023-04-26T05:43:08.421Z,13.01
2023-04-26T05:45:36.729Z,13.20
2023-04-26T05:48:05.477Z,13.07
2023-04-26T05:50:33.897Z,13.85
2023-04-26T05:53:02.119Z,13.08
2023-04-26T05:55:30.729Z,13.16
2023-04-26T05:57:59.337Z,13.95
2023-04-26T06:00:29.157Z,13.70
2023-04-26T06:02:57.576Z,13.51
2023-04-26T06:05:26.085Z,13.45
2023-04-26T06:07:54.533Z,13.99
2023-04-26T06:10:22.878Z,13.82
2023-04-26T06:12:51.201Z,14.29
2023-04-26T06:15:19.632Z,14.43
2023-04-26T06:17:49.260Z,14.75
2023-04-26T06:20:17.524Z,13.43
2023-04-26T06:22:45.873Z,13.90
2023-04-26T06:25:14.467Z,14.29
2023-04-26T06:27:42.734Z,14.02
2023-04-26T06:30:11.879Z,14.20
2023-04-26T06:32:41.773Z,14.46
2023-04-26T06:35:11.889Z,14.96
2023-04-26T06:37:40.259Z,14.23
2023-04-26T06:40:09.773Z,14.56
2023-04-26T06:42:38.061Z,14.52
2023-04-26T06:45:07.193Z,15.25
2023-04-26T06:47:35.509Z,15.35
2023-04-26T06:50:04.697Z,15.97
2023-04-26T06:52:34.428Z,16.02
2023-04-26T06:55:03.401Z,16.00
2023-04-26T06:57:31.653Z,16.03
2023-04-26T06:59:59.910Z,15.99
2023-04-26T07:02:28.257Z,15.70
2023-04-26T07:04:57.764Z,16.87
2023-04-26T07:07:26.272Z,17.20
2023-04-26T07:09:55.934Z,17.77
2023-04-26T07:12:24.169Z,16.99
2023-04-26T07:14:52.447Z,16.57
2023-04-26T07:17:21.599Z,17.17
2023-04-26T07:19:49.869Z,16.06
2023-04-26T07:22:18.139Z,16.55
2023-04-26T07:24:46.418Z,17.03
2023-04-26T07:27:16.358Z,17.61
2023-04-26T07:29:44.580Z,17.72
2023-04-26T07:32:13.204Z,17.46
2023-04-26T07:34:41.975Z,17.51
2023-04-26T07:37:10.272Z,17.03
2023-04-26T07:39:38.480Z,17.11
2023-04-26T07:42:07.256Z,17.78
2023-04-26T07:44:36.965Z,18.63
2023-04-26T07:47:05.274Z,18.38
2023-04-26T07:49:33.521Z,18.27
2023-04-26T07:52:02.477Z,18.13
2023-04-26T07:54:31.021Z,18.09
2023-04-26T07:56:59.224Z,18.54
2023-04-26T07:59:27.515Z,18.64
2023-04-26T08:01:57.272Z,19.27
2023-04-26T08:04:32.830Z,19.26
2023-04-26T08:07:02.378Z,19.37
2023-04-26T08:09:31.062Z,19.25
2023-04-26T08:11:59.408Z,17.87
2023-04-26T08:14:28.765Z,19.60
2023-04-26T08:16:58.465Z,19.29
2023-04-26T08:19:26.881Z,19.31
2023-04-26T08:21:55.104Z,18.90
2023-04-26T08:24:23.581Z,18.32
2023-04-26T08:26:51.964Z,19.85
2023-04-26T08:29:20.686Z,19.06
2023-04-26T08:31:48.932Z,18.57
2023-04-26T08:34:18.567Z,18.92
2023-04-26T08:36:47.136Z,18.10
2023-04-26T08:39:15.393Z,18.47
2023-04-26T08:41:44.804Z,18.98
2023-04-26T08:44:13.074Z,18.21
2023-04-26T08:46:47.828Z,20.04
2023-04-26T08:49:24.121Z,19.90
2023-04-26T08:51:52.759Z,19.53
2023-04-26T08:54:21.325Z,19.19
2023-04-26T08:56:50.190Z,19.64
2023-04-26T08:59:18.880Z,20.04
2023-04-26T09:01:47.287Z,18.55
2023-04-26T09:04:15.782Z,19.71
2023-04-26T09:06:45.757Z,19.76
2023-04-26T09:09:14.988Z,19.96
2023-04-26T09:11:56.728Z,19.79
2023-04-26T09:14:25.666Z,20.29
2023-04-26T09:16:54.432Z,20.19
2023-04-26T09:19:37.012Z,20.41
2023-04-26T09:22:07.534Z,20.88
2023-04-26T09:24:48.073Z,19.80
2023-04-26T09:27:16.754Z,19.53
2023-04-26T09:29:58.833Z,19.97
2023-04-26T09:32:27.200Z,20.83
2023-04-26T09:34:55.702Z,19.77
2023-04-26T09:37:25.321Z,18.85
2023-04-26T09:39:54.172Z,20.03
2023-04-26T09:42:22.435Z,20.03
2023-04-26T09:44:51.859Z,20.17
2023-04-26T09:47:23.301Z,20.78
2023-04-26T09:49:52.685Z,19.57
2023-04-26T09:52:21.694Z,18.14
2023-04-26T09:54:53.186Z,17.70
2023-04-26T09:57:23.674Z,17.84
2023-04-26T09:59:55.056Z,17.59
2023-04-26T10:02:25.289Z,17.80
2023-04-26T10:04:55.192Z,18.03
2023-04-26T10:07:25.589Z,18.48
2023-04-26T10:09:55.963Z,18.91
2023-04-26T10:12:24.398Z,18.46
2023-04-26T10:14:52.717Z,19.00
2023-04-26T10:17:21.886Z,20.59
2023-04-26T10:19:53.275Z,19.95
2023-04-26T10:22:23.972Z,19.86
2023-04-26T10:24:53.183Z,19.90
2023-04-26T10:27:50.198Z,19.33
2023-04-26T10:30:20.094Z,19.01
2023-04-26T10:33:14.804Z,18.90
2023-04-26T10:36:06.006Z,19.19
2023-04-26T10:38:34.863Z,19.02
2023-04-26T10:41:31.967Z,19.13
2023-04-26T10:44:21.122Z,19.31
2023-04-26T10:46:52.713Z,18.59
2023-04-26T10:49:24.934Z,19.21
2023-04-26T10:52:23.051Z,19.28
2023-04-26T10:54:56.287Z,17.56
2023-04-26T10:57:27.045Z,18.22
2023-04-26T11:00:32.694Z,18.23
2023-04-26T11:03:06.575Z,17.99
2023-04-26T11:05:43.980Z,17.76
2023-04-26T11:08:17.603Z,18.40
2023-04-26T11:10:50.763Z,18.45
2023-04-26T11:13:19.525Z,19.14
2023-04-26T11:15:53.843Z,18.86
2023-04-26T11:18:22.567Z,18.12
2023-04-26T11:20:50.852Z,18.90
2023-04-26T11:23:19.536Z,19.43
2023-04-26T11:25:48.528Z,18.91
2023-04-26T11:28:16.998Z,19.77
2023-04-26T11:30:45.359Z,19.49
2023-04-26T11:33:20.192Z,21.06
2023-04-26T11:35:48.968Z,19.64
2023-04-26T11:38:17.699Z,20.29
2023-04-26T11:40:46.161Z,21.33
2023-04-26T11:43:15.547Z,22.68
2023-04-26T11:45:44.200Z,21.55
2023-04-26T11:48:13.767Z,22.46
2023-04-26T11:50:43.666Z,21.21
2023-04-26T11:53:11.954Z,21.37
2023-04-26T11:55:41.870Z,22.25
2023-04-26T11:58:12.546Z,21.22
2023-04-26T12:00:59.067Z,23.11
2023-04-26T12:03:32.316Z,22.45
2023-04-26T12:06:02.279Z,20.88
2023-04-26T12:08:30.985Z,21.19
2023-04-26T12:11:01.955Z,21.58
2023-04-26T12:13:30.693Z,21.86
2023-04-26T12:15:59.100Z,20.32
2023-04-26T12:18:32.450Z,20.95
2023-04-26T12:21:02.602Z,20.70
2023-04-26T12:23:39.337Z,19.57
2023-04-26T12:26:11.029Z,19.26
2023-04-26T12:28:39.765Z,19.85
2023-04-26T12:31:08.403Z,20.55
2023-04-26T12:33:37.513Z,20.32
2023-04-26T12:36:11.812Z,20.37
2023-04-26T12:38:40.599Z,20.56
2023-04-26T12:43:37.131Z,22.14
2023-04-26T12:46:05.695Z,20.35
2023-04-26T12:48:34.061Z,20.28
2023-04-26T12:51:02.387Z,19.48
2023-04-26T12:53:32.258Z,20.73
2023-04-26T12:56:00.789Z,20.62
2023-04-26T12:58:29.177Z,20.80
2023-04-26T13:00:57.737Z,20.28
2023-04-26T13:03:26.484Z,20.34
2023-04-26T13:05:54.870Z,19.79
2023-04-26T13:08:24.359Z,21.43
2023-04-26T13:10:53.952Z,21.86
2023-04-26T13:13:29.251Z,22.26
2023-04-26T13:16:04.526Z,20.95
2023-04-26T13:18:32.782Z,21.50
2023-04-26T13:21:01.086Z,20.88
2023-04-26T13:23:29.350Z,20.96
2023-04-26T13:25:59.098Z,21.84
2023-04-26T13:28:27.411Z,21.39
2023-04-26T13:30:56.026Z,22.20
2023-04-26T13:33:24.433Z,22.54
2023-04-26T13:35:53.070Z,22.56
2023-04-26T13:38:21.476Z,22.20
2023-04-26T13:40:49.790Z,20.29
2023-04-26T13:43:19.484Z,21.15
2023-04-26T13:45:47.931Z,20.58
2023-04-26T13:48:16.643Z,22.39
2023-04-26T13:50:45.122Z,21.93
2023-04-26T13:53:13.405Z,20.97
2023-04-26T13:55:42.125Z,21.96
2023-04-26T13:58:10.450Z,20.26
2023-04-26T14:00:40.037Z,20.81
2023-04-26T14:03:08.500Z,21.10
2023-04-26T14:05:37.006Z,21.01
2023-04-26T14:08:06.101Z,20.84
2023-04-26T14:10:34.443Z,20.14
2023-04-26T14:13:02.749Z,20.52
2023-04-26T14:15:31.120Z,20.79
2023-04-26T14:18:01.151Z,22.08
2023-04-26T14:20:29.999Z,20.93
2023-04-26T14:22:58.694Z,20.49
2023-04-26T14:25:27.420Z,21.73
2023-04-26T14:27:55.865Z,22.17
2023-04-26T14:30:24.735Z,21.85
2023-04-26T14:32:53.134Z,21.73
2023-04-26T14:35:22.816Z,21.12
2023-04-26T14:37:51.169Z,21.60
2023-04-26T14:40:19.694Z,21.56
2023-04-26T14:42:47.942Z,20.78
2023-04-26T14:45:16.446Z,20.61
2023-04-26T14:47:44.811Z,21.40
2023-04-26T14:50:14.105Z,22.65
2023-04-26T14:52:43.783Z,20.53
2023-04-26T14:55:12.179Z,21.40
2023-04-26T14:57:41.837Z,23.14
2023-04-26T15:00:15.396Z,21.15
2023-04-26T15:02:44.004Z,20.14
2023-04-26T15:05:12.973Z,21.15
2023-04-26T15:07:42.982Z,20.30
2023-04-26T15:10:11.409Z,20.78
2023-04-26T15:12:39.679Z,20.22
2023-04-26T15:15:09.097Z,20.59
2023-04-26T15:17:37.577Z,21.07
2023-04-26T15:20:07.328Z,20.33
2023-04-26T15:22:38.594Z,20.32
2023-04-26T15:25:10.986Z,20.57
2023-04-26T15:27:39.280Z,20.52
2023-04-26T15:30:09.506Z,21.19
2023-04-26T15:32:38.226Z,21.14
2023-04-26T15:35:07.530Z,21.18
2023-04-26T15:37:38.051Z,20.87
2023-04-26T15:40:10.488Z,20.96
2023-04-26T15:42:40.632Z,20.89
2023-04-26T15:45:10.037Z,21.80
2023-04-26T15:47:38.407Z,22.20
2023-04-26T15:50:08.039Z,21.76
2023-04-26T15:52:38.893Z,21.94
2023-04-26T15:55:08.262Z,21.28
2023-04-26T15:57:36.793Z,20.56
2023-04-26T16:00:09.660Z,20.49
2023-04-26T16:02:38.114Z,20.08
2023-04-26T16:05:08.366Z,20.66
2023-04-26T16:07:38.744Z,21.49
2023-04-26T16:10:09.166Z,22.03
2023-04-26T16:12:39.678Z,21.53
2023-04-26T16:15:10.435Z,21.29
2023-04-26T16:17:38.905Z,20.85
2023-04-26T16:20:08.855Z,20.25
2023-04-26T16:22:37.577Z,20.51
2023-04-26T16:25:06.838Z,21.00
2023-04-26T16:27:35.355Z,21.39
2023-04-26T16:30:03.929Z,21.69
2023-04-26T16:32:34.174Z,20.70
2023-04-26T16:35:02.579Z,19.86
2023-04-26T16:37:31.478Z,20.06
2023-04-26T16:40:00.238Z,20.18
2023-04-26T16:42:31.018Z,19.91
2023-04-26T16:44:59.276Z,20.34
2023-04-26T16:47:27.638Z,20.55
2023-04-26T16:49:57.298Z,19.96
2023-04-26T16:52:25.623Z,20.21
2023-04-26T16:54:54.016Z,20.25
2023-04-26T16:57:22.263Z,20.42
2023-04-26T16:59:51.475Z,20.80
2023-04-26T17:02:19.950Z,20.56
2023-04-26T17:04:50.026Z,20.25
2023-04-26T17:07:19.886Z,20.08
2023-04-26T17:09:48.107Z,20.49
2023-04-26T17:12:16.397Z,20.53
2023-04-26T17:14:44.628Z,20.65
2023-04-26T17:17:12.901Z,20.92
2023-04-26T17:19:41.171Z,20.94
2023-04-26T17:22:09.400Z,21.00
2023-04-26T17:24:39.026Z,20.56
2023-04-26T17:27:08.195Z,20.70
2023-04-26T17:29:36.449Z,20.47
2023-04-26T17:32:04.913Z,19.78
2023-04-26T17:34:33.376Z,20.30
2023-04-26T17:37:01.676Z,20.28
2023-04-26T17:39:29.974Z,20.67
2023-04-26T17:41:59.543Z,20.58
2023-04-26T17:44:27.795Z,20.52
2023-04-26T17:46:56.000Z,20.24
2023-04-26T17:49:25.821Z,19.91
2023-04-26T17:51:54.135Z,19.89
2023-04-26T17:54:22.361Z,19.57
2023-04-26T17:56:50.904Z,19.34
2023-04-26T17:59:20.461Z,19.71
2023-04-26T18:01:48.866Z,20.12
2023-04-26T18:04:17.360Z,20.17
2023-04-26T18:06:46.059Z,20.11
2023-04-26T18:09:14.334Z,19.96
2023-04-26T18:11:47.609Z,19.86
2023-04-26T18:14:16.295Z,19.82
2023-04-26T18:16:46.295Z,19.76
2023-04-26T18:19:14.598Z,19.57
2023-04-26T18:21:42.915Z,19.45
2023-04-26T18:24:11.284Z,19.34
2023-04-26T18:26:41.040Z,19.30
2023-04-26T18:29:09.522Z,19.14
2023-04-26T18:31:37.844Z,18.89
2023-04-26T18:34:07.841Z,18.93
2023-04-26T18:36:36.378Z,18.89
2023-04-26T18:39:04.926Z,18.92
2023-04-26T18:41:33.346Z,18.90
2023-04-26T18:44:01.641Z,18.94
2023-04-26T18:46:29.980Z,18.93
2023-04-26T18:48:58.367Z,18.82
2023-04-26T18:51:27.970Z,18.83
2023-04-26T18:53:56.922Z,18.79
2023-04-26T18:56:25.534Z,18.79
2023-04-26T18:58:53.810Z,18.86
2023-04-26T19:01:22.220Z,18.87
2023-04-26T19:03:50.633Z,18.91
2023-04-26T19:06:19.016Z,18.88
2023-04-26T19:08:48.669Z,18.83
2023-04-26T19:11:17.017Z,18.87
2023-04-26T19:13:45.304Z,18.83
2023-04-26T19:16:13.583Z,18.77
2023-04-26T19:18:44.481Z,18.72
2023-04-26T19:21:12.769Z,18.69
2023-04-26T19:23:41.032Z,18.67
2023-04-26T19:26:13.165Z,18.62
2023-04-26T19:28:42.299Z,18.56
2023-04-26T19:31:10.727Z,18.12
2023-04-26T19:33:40.387Z,17.70
2023-04-26T19:36:10.441Z,17.87
2023-04-26T19:38:38.729Z,18.08
2023-04-26T19:41:07.053Z,18.01
2023-04-26T19:43:36.701Z,17.72
2023-04-26T19:46:12.172Z,17.68
2023-04-26T19:48:40.454Z,17.56
2023-04-26T19:51:08.876Z,17.58
2023-04-26T19:53:37.098Z,17.67
2023-04-26T19:56:05.603Z,17.65
2023-04-26T19:58:33.902Z,17.29
2023-04-26T20:01:03.681Z,17.37
2023-04-26T20:03:33.278Z,17.38
2023-04-26T20:06:01.857Z,17.04
2023-04-26T20:08:31.383Z,17.11
2023-04-26T20:11:03.471Z,17.23
2023-04-26T20:13:31.777Z,17.09
2023-04-26T20:16:00.769Z,17.08
2023-04-26T20:18:30.838Z,17.03
2023-04-26T20:20:59.140Z,16.85
2023-04-26T20:23:27.466Z,16.90
2023-04-26T20:25:55.784Z,16.90
2023-04-26T20:28:24.544Z,16.70
2023-04-26T20:30:52.892Z,16.60
2023-04-26T20:33:21.374Z,16.51
2023-04-26T20:35:54.229Z,16.56
2023-04-26T20:38:23.226Z,16.42
2023-04-26T20:40:51.623Z,16.48
2023-04-26T20:43:19.986Z,16.36
2023-04-26T20:45:48.298Z,16.28
2023-04-26T20:48:16.562Z,16.34
2023-04-26T20:50:44.881Z,16.37
2023-04-26T20:53:14.526Z,16.34
2023-04-26T20:55:42.746Z,16.38
2023-04-26T20:58:11.089Z,16.04
2023-04-26T21:00:39.373Z,16.17
2023-04-26T21:03:08.426Z,16.18
2023-04-26T21:05:36.854Z,15.89
2023-04-26T21:08:06.027Z,15.77
2023-04-26T21:10:35.715Z,15.99
2023-04-26T21:13:04.123Z,16.03
2023-04-26T21:15:32.432Z,16.03
2023-04-26T21:18:01.052Z,16.01
2023-04-26T21:20:29.358Z,15.98
2023-04-26T21:22:57.571Z,15.96
2023-04-26T21:25:27.919Z,16.10
2023-04-26T21:27:58.728Z,16.06
2023-04-26T21:30:26.997Z,15.69
2023-04-26T21:32:58.307Z,16.01
2023-04-26T21:35:26.830Z,16.03
2023-04-26T21:37:55.079Z,16.11
2023-04-26T21:40:23.328Z,16.36
2023-04-26T21:43:04.022Z,16.38
2023-04-26T21:45:35.257Z,16.28
2023-04-26T21:48:03.720Z,16.37
2023-04-26T21:50:32.005Z,15.75
2023-04-26T21:53:00.235Z,15.95
2023-04-26T21:55:28.452Z,16.30
2023-04-26T21:57:56.752Z,16.19
2023-04-26T22:00:27.159Z,16.34
2023-04-26T22:02:56.990Z,16.32
2023-04-26T22:05:25.972Z,16.06
2023-04-26T22:07:54.529Z,16.25
2023-04-26T22:10:22.842Z,16.09
2023-04-26T22:12:51.358Z,16.21
2023-04-26T22:15:19.889Z,16.44
2023-04-26T22:17:48.134Z,16.55
2023-04-26T22:20:17.806Z,16.24
2023-04-26T22:22:46.273Z,16.26
2023-04-26T22:25:14.539Z,16.29
2023-04-26T22:27:42.853Z,16.29
2023-04-26T22:30:22.865Z,16.37
2023-04-26T22:32:54.751Z,16.34
2023-04-26T22:35:25.548Z,16.34
2023-04-26T22:37:53.845Z,16.22
2023-04-26T22:40:22.144Z,16.44
2023-04-26T22:42:50.489Z,16.30
2023-04-26T22:45:18.822Z,16.48
2023-04-26T22:47:47.224Z,16.51
2023-04-26T22:50:15.476Z,16.39
2023-04-26T22:52:45.102Z,16.29
2023-04-26T22:55:13.409Z,16.46
2023-04-26T22:57:41.717Z,16.25
2023-04-26T23:00:12.460Z,16.41
2023-04-26T23:02:41.137Z,16.36
2023-04-26T23:05:10.607Z,15.97
2023-04-26T23:07:39.274Z,16.28
2023-04-26T23:10:09.858Z,16.51
2023-04-26T23:12:38.209Z,16.53
2023-04-26T23:15:07.470Z,16.42
2023-04-26T23:17:35.751Z,16.33
2023-04-26T23:20:11.948Z,16.48
2023-04-26T23:22:41.935Z,16.58
2023-04-26T23:25:11.892Z,16.49
2023-04-26T23:27:40.092Z,16.50
2023-04-26T23:30:09.326Z,16.41
2023-04-26T23:32:37.673Z,16.37
2023-04-26T23:35:06.813Z,16.33
2023-04-26T23:37:35.327Z,16.40
2023-04-26T23:40:05.608Z,16.42
2023-04-26T23:42:35.558Z,16.27
2023-04-26T23:45:04.420Z,16.46
2023-04-26T23:47:32.700Z,16.42
2023-04-26T23:50:00.995Z,16.64
2023-04-26T23:52:29.260Z,16.56
2023-04-26T23:54:57.489Z,16.66
2023-04-26T23:57:25.825Z,16.68
2023-04-26T23:59:55.693Z,16.53
